createdAt,value
2023-01-12T00:05:00.801Z,31.5
2023-01-12T00:09:36.128Z,31.4
2023-01-12T00:14:42.591Z,31.4
2023-01-12T00:19:49.936Z,31.4
2023-01-12T00:25:12.422Z,31.4
2023-01-12T00:30:04.126Z,31.3
2023-01-12T00:35:26.342Z,31.3
2023-01-12T00:40:54.454Z,31.3
2023-01-12T00:46:17.004Z,31.3
2023-01-12T00:51:41.788Z,31.2
2023-01-12T00:57:02.011Z,31.2
2023-01-12T01:02:25.238Z,31.1
2023-01-12T01:07:31.769Z,31.1
2023-01-12T01:12:23.902Z,31.1
2023-01-12T01:17:15.898Z,31.1
2023-01-12T01:22:22.547Z,31
2023-01-12T01:27:14.627Z,31
2023-01-12T01:32:20.710Z,30.9
2023-01-12T01:37:26.995Z,30.9
2023-01-12T01:42:49.760Z,30.9
2023-01-12T01:48:12.336Z,30.8
2023-01-12T01:53:18.752Z,30.8
2023-01-12T01:58:41.554Z,30.8
2023-01-12T02:03:52.821Z,30.8
2023-01-12T02:08:59.416Z,31.2
2023-01-12T02:14:07.085Z,31.5
2023-01-12T02:19:28.681Z,31.9
2023-01-12T02:24:51.121Z,32.3
2023-01-12T02:29:58.323Z,32.7
2023-01-12T02:35:20.589Z,33.1
2023-01-12T02:40:45.111Z,33.4
2023-01-12T02:46:07.896Z,33.9
2023-01-12T02:51:29.044Z,34.4
2023-01-12T02:56:51.246Z,34.8
2023-01-12T03:02:14.530Z,35.1
2023-01-12T03:07:36.635Z,35.3
2023-01-12T03:12:43.442Z,35.6
2023-01-12T03:18:06.537Z,35.7
2023-01-12T03:23:28.311Z,35.9
2023-01-12T03:28:34.987Z,36
2023-01-12T03:33:57.814Z,36.1
2023-01-12T03:39:20.465Z,36.2
2023-01-12T03:44:43.307Z,36.3
2023-01-12T03:50:06.005Z,36.3
2023-01-12T03:55:27.922Z,36.3
2023-01-12T04:00:49.209Z,36.3
2023-01-12T04:06:13.197Z,36.3
2023-01-12T04:11:19.475Z,36.3
2023-01-12T04:16:27.535Z,36.3
2023-01-12T04:21:50.132Z,36.3
2023-01-12T04:26:56.216Z,36.3
2023-01-12T04:32:03.144Z,36.3
2023-01-12T04:37:25.663Z,36.3
2023-01-12T04:42:47.665Z,36.3
2023-01-12T04:48:12.437Z,36.2
2023-01-12T04:53:35.377Z,36.1
2023-01-12T04:58:58.182Z,36.1
2023-01-12T05:04:23.463Z,36.1
2023-01-12T05:09:45.963Z,36
2023-01-12T05:15:07.678Z,36
2023-01-12T05:20:33.732Z,35.9
2023-01-12T05:25:41.092Z,35.9
2023-01-12T05:31:04.742Z,35.6
2023-01-12T05:36:11.752Z,35.4
2023-01-12T05:41:18.907Z,35.3
2023-01-12T05:46:41.292Z,35.1
2023-01-12T05:52:02.568Z,34.9
2023-01-12T05:57:25.930Z,34.8
2023-01-12T06:02:32.774Z,34.6
2023-01-12T06:07:40.721Z,34.4
2023-01-12T06:12:49.739Z,34.1
2023-01-12T06:17:56.749Z,33.8
2023-01-12T06:23:19.827Z,33.5
2023-01-12T06:28:42.355Z,33.3
2023-01-12T06:34:04.553Z,33.1
2023-01-12T06:39:34.990Z,32.8
2023-01-12T06:44:58.055Z,32.7
2023-01-12T06:50:20.574Z,32.4
2023-01-12T06:55:42.394Z,32.3
2023-01-12T07:01:05.824Z,32.4
2023-01-12T07:06:28.159Z,32.5
2023-01-12T07:11:51.315Z,32.4
2023-01-12T07:17:17.203Z,31.4
2023-01-12T07:22:39.630Z,30.1
2023-01-12T07:28:04.558Z,29
2023-01-12T07:33:27.710Z,28.1
2023-01-12T07:38:51.625Z,27.4
2023-01-12T07:44:14.684Z,26.9
2023-01-12T07:49:38.002Z,26.5
2023-01-12T07:55:01.712Z,26.2
2023-01-12T08:00:24.340Z,25.9
2023-01-12T08:05:51.122Z,25.7
2023-01-12T08:11:13.025Z,25.6
2023-01-12T08:16:35.576Z,25.4
2023-01-12T08:21:58.509Z,25.3
2023-01-12T08:27:22.641Z,25.1
2023-01-12T08:32:45.345Z,25.1
2023-01-12T08:38:26.244Z,25
2023-01-12T08:43:50.997Z,24.9
2023-01-12T08:49:16.725Z,24.8
2023-01-12T08:54:40.333Z,24.8
2023-01-12T08:59:47.317Z,24.8
2023-01-12T09:04:55.700Z,24.7
2023-01-12T09:10:18.698Z,24.7
2023-01-12T09:15:43.192Z,24.6
2023-01-12T09:21:19.127Z,24.6
2023-01-12T09:26:44.465Z,24.6
2023-01-12T09:32:08.189Z,24.5
2023-01-12T09:37:39.409Z,24.5
2023-01-12T09:43:09.735Z,24.5
2023-01-12T09:48:17.025Z,24.4
2023-01-12T09:53:49.335Z,24.5
2023-01-12T09:59:24.224Z,24.4
2023-01-12T10:04:54.624Z,24.4
2023-01-12T10:10:28.266Z,24.4
2023-01-12T10:15:51.125Z,24.4
2023-01-12T10:21:16.851Z,24.4
2023-01-12T10:26:40.466Z,24.4
2023-01-12T10:32:03.967Z,24.4
2023-01-12T10:37:30.339Z,24.3
2023-01-12T10:42:54.838Z,24.3
2023-01-12T10:48:26.006Z,24.3
2023-01-12T10:53:48.790Z,24.3
2023-01-12T10:59:14.293Z,24.3
2023-01-12T11:04:39.154Z,24.3
2023-01-12T11:10:01.532Z,24.3
2023-01-12T11:15:30.353Z,24.3
2023-01-12T11:20:56.722Z,24.1
2023-01-12T11:26:18.818Z,23.9
2023-01-12T11:31:26.404Z,23.6
2023-01-12T11:36:34.710Z,23.3
2023-01-12T11:41:42.203Z,23.1
2023-01-12T11:47:04.533Z,22.8
2023-01-12T11:52:30.869Z,22.6
2023-01-12T11:57:55.776Z,22.4
2023-01-12T12:03:22.114Z,22.2
2023-01-12T12:08:45.343Z,21.9
2023-01-12T12:14:11.398Z,21.8
2023-01-12T12:19:20.963Z,21.6
2023-01-12T12:24:45.181Z,21.5
2023-01-12T12:30:07.696Z,21.4
2023-01-12T12:35:14.852Z,21.4
2023-01-12T12:40:38.236Z,21.3
2023-01-12T12:46:01.144Z,21.3
2023-01-12T12:51:23.460Z,21.2
2023-01-12T12:56:49.639Z,21.2
2023-01-12T13:17:07.730Z,21.1
2023-01-12T13:22:38.686Z,21.1
2023-01-12T13:28:02.082Z,21.1
2023-01-12T13:33:11.462Z,21.1
2023-01-12T13:38:21.326Z,21.1
2023-01-12T13:43:32.642Z,21.1
2023-01-12T13:48:55.860Z,21.1
2023-01-12T13:54:18.404Z,21
2023-01-12T13:59:42.818Z,21.1
2023-01-12T14:05:09.292Z,21.1
2023-01-12T14:10:45.703Z,21
2023-01-12T14:16:09.281Z,21.1
2023-01-12T14:21:54.201Z,21.1
2023-01-12T14:27:16.824Z,21.1
2023-01-12T14:32:40.477Z,21.1
2023-01-12T14:38:02.797Z,21.1
2023-01-12T14:43:25.559Z,21.1
2023-01-12T14:48:48.907Z,21.1
2023-01-12T14:54:11.287Z,21.1
2023-01-12T14:59:34.349Z,21.1
2023-01-12T15:05:06.673Z,21.1
2023-01-12T15:10:28.893Z,21.1
2023-01-12T15:15:51.464Z,21
2023-01-12T15:21:14.555Z,21.1
2023-01-12T15:26:37.506Z,21
2023-01-12T15:32:12.254Z,21
2023-01-12T15:37:48.335Z,21
2023-01-12T15:43:10.549Z,21
2023-01-12T15:48:32.936Z,21.1
2023-01-12T15:53:56.029Z,21
2023-01-12T15:59:02.104Z,21.1
2023-01-12T16:05:30.768Z,21.1
2023-01-12T16:10:55.582Z,20.9
2023-01-12T16:16:03.096Z,20.8
2023-01-12T16:21:25.836Z,20.6
2023-01-12T16:26:49.601Z,20.4
2023-01-12T16:32:14.277Z,20.3
2023-01-12T16:37:36.807Z,20.3
2023-01-12T16:43:00.182Z,20.2
2023-01-12T16:47:54.065Z,20.1
2023-01-12T16:53:17.351Z,20.1
2023-01-12T16:58:42.759Z,20
2023-01-12T17:04:11.046Z,19.9
2023-01-12T17:09:05.009Z,19.9
2023-01-12T17:14:39.876Z,19.9
2023-01-12T17:19:51.299Z,19.9
2023-01-12T17:25:16.754Z,19.8
2023-01-12T17:30:27.592Z,19.8
2023-01-12T17:35:21.768Z,19.8
2023-01-12T17:40:44.971Z,19.8
2023-01-12T17:46:09.485Z,19.8
2023-01-12T17:51:36.134Z,19.7
2023-01-12T17:56:53.715Z,19.7
2023-01-12T18:02:03.118Z,19.7
2023-01-12T18:07:49.089Z,19.6
2023-01-12T18:13:12.271Z,19.6
2023-01-12T18:18:37.626Z,19.6
2023-01-12T18:23:45.831Z,19.6
2023-01-12T18:29:10.576Z,19.6
2023-01-12T18:34:34.676Z,19.6
2023-01-12T18:40:01.477Z,19.6
2023-01-12T18:45:26.358Z,19.6
2023-01-12T18:50:36.912Z,19.6
2023-01-12T18:56:04.789Z,19.6
2023-01-12T19:01:32.629Z,19.6
2023-01-12T19:07:01.571Z,19.6
2023-01-12T19:12:31.386Z,19.6
2023-01-12T19:18:02.165Z,19.6
2023-01-12T19:23:16.947Z,19.6
2023-01-12T19:28:15.766Z,19.6
2023-01-12T19:33:49.075Z,19.6
2023-01-12T19:39:32.177Z,19.6
2023-01-12T19:45:03.198Z,19.6
2023-01-12T19:50:33.917Z,19.6
2023-01-12T19:56:06.544Z,19.6
2023-01-12T20:01:21.366Z,19.6
2023-01-12T20:06:48.787Z,19.6
2023-01-12T20:12:01.555Z,19.6
2023-01-12T20:17:32.752Z,19.6
2023-01-12T20:23:03.178Z,19.9
2023-01-12T20:28:01.660Z,20.9
2023-01-12T20:33:48.113Z,22.3
2023-01-12T20:39:14.429Z,23.8
2023-01-12T20:44:41.089Z,25.4
2023-01-12T20:50:08.527Z,26.8
2023-01-12T20:55:32.775Z,28.1
2023-01-12T21:00:57.964Z,29
2023-01-12T21:05:56.611Z,29.8
2023-01-12T21:11:31.877Z,30.4
2023-01-12T21:16:42.422Z,30.7
2023-01-12T21:22:05.435Z,31
2023-01-12T21:27:29.121Z,31.2
2023-01-12T21:32:52.705Z,31.3
2023-01-12T21:38:16.386Z,31.4
2023-01-12T21:43:23.448Z,31.5
2023-01-12T21:48:31.457Z,31.6
2023-01-12T21:53:56.886Z,31.7
2023-01-12T21:58:48.548Z,31.7
2023-01-12T22:04:12.378Z,31.7
2023-01-12T22:09:19.843Z,31.8
2023-01-12T22:14:42.367Z,31.8
2023-01-12T22:19:49.825Z,31.8
2023-01-12T22:25:12.462Z,31.8
2023-01-12T22:30:34.603Z,31.8
2023-01-12T22:35:57.774Z,31.8
2023-01-12T22:41:07.962Z,31.8
2023-01-12T22:46:14.783Z,31.8
2023-01-12T22:51:45.874Z,31.8
2023-01-12T22:57:09.004Z,31.8
2023-01-12T23:02:15.363Z,31.7
2023-01-12T23:07:23.408Z,31.7
2023-01-12T23:12:30.254Z,31.6
2023-01-12T23:17:52.482Z,31.6
2023-01-12T23:23:14.832Z,31.6
2023-01-12T23:28:21.228Z,31.6
2023-01-12T23:33:42.832Z,31.5
2023-01-12T23:38:50.155Z,31.5
2023-01-12T23:44:12.023Z,31.4
2023-01-12T23:49:33.734Z,31.4
2023-01-12T23:54:56.219Z,31.4
